createdAt,value
2019-06-01T00:00:37.882Z,0.90
2019-06-01T00:03:09.918Z,0.80
2019-06-01T00:05:40.953Z,1.00
2019-06-01T00:08:12.406Z,1.50
2019-06-01T00:10:43.000Z,0.90
2019-06-01T00:13:13.941Z,0.90
2019-06-01T00:15:46.138Z,0.90
2019-06-01T00:18:16.785Z,1.20
2019-06-01T00:20:54.977Z,1.23
2019-06-01T00:23:27.130Z,1.00
2019-06-01T00:25:58.649Z,1.10
2019-06-01T00:28:29.617Z,1.10
2019-06-01T00:31:00.014Z,0.80
2019-06-01T00:33:32.441Z,1.10
2019-06-01T00:36:03.839Z,1.00
2019-06-01T00:38:34.714Z,1.27
2019-06-01T00:41:04.986Z,1.30
2019-06-01T00:43:36.381Z,1.00
2019-06-01T00:46:07.881Z,1.03
2019-06-01T00:48:39.196Z,1.20
2019-06-01T00:51:10.194Z,1.20
2019-06-01T00:53:40.401Z,1.37
2019-06-01T00:56:12.561Z,1.10
2019-06-01T00:58:43.603Z,1.30
2019-06-01T01:01:14.372Z,1.00
2019-06-01T01:03:44.288Z,1.13
2019-06-01T01:06:17.649Z,1.13
2019-06-01T01:08:51.000Z,1.07
2019-06-01T01:11:22.057Z,1.03
2019-06-01T01:13:55.397Z,1.10
2019-06-01T01:16:27.177Z,1.10
2019-06-01T01:18:57.626Z,1.00
2019-06-01T01:21:29.006Z,1.30
2019-06-01T01:23:59.452Z,1.53
2019-06-01T01:26:30.461Z,1.10
2019-06-01T01:29:00.754Z,1.10
2019-06-01T01:31:31.705Z,1.00
2019-06-01T01:34:01.541Z,1.30
2019-06-01T01:36:52.740Z,1.20
2019-06-01T01:39:24.096Z,1.07
2019-06-01T01:41:56.792Z,1.10
2019-06-01T01:44:27.073Z,1.20
2019-06-01T01:46:59.064Z,1.20
2019-06-01T01:49:29.609Z,1.20
2019-06-01T01:52:01.645Z,1.30
2019-06-01T01:54:32.149Z,1.27
2019-06-01T01:57:02.596Z,1.13
2019-06-01T01:59:33.569Z,1.23
2019-06-01T02:02:03.959Z,1.10
2019-06-01T02:04:35.360Z,1.10
2019-06-01T02:07:05.726Z,1.27
2019-06-01T02:09:36.748Z,1.30
2019-06-01T02:12:07.129Z,1.27
2019-06-01T02:14:38.041Z,1.33
2019-06-01T02:17:08.526Z,1.23
2019-06-01T02:19:43.314Z,1.23
2019-06-01T02:22:13.657Z,1.10
2019-06-01T02:24:43.857Z,1.30
2019-06-01T02:27:14.241Z,1.20
2019-06-01T02:29:48.925Z,1.30
2019-06-01T02:32:18.834Z,0.90
2019-06-01T02:34:54.131Z,1.30
2019-06-01T02:37:23.851Z,1.20
2019-06-01T02:39:54.402Z,1.23
2019-06-01T02:42:24.889Z,1.10
2019-06-01T02:44:57.384Z,1.20
2019-06-01T02:47:30.789Z,1.20
2019-06-01T02:50:04.270Z,1.10
2019-06-01T02:52:34.625Z,1.10
2019-06-01T02:55:06.477Z,1.17
2019-06-01T02:57:37.076Z,0.93
2019-06-01T03:00:10.086Z,1.00
2019-06-01T03:02:42.393Z,0.93
2019-06-01T03:05:16.273Z,1.00
2019-06-01T03:07:48.319Z,1.00
2019-06-01T03:10:19.162Z,0.80
2019-06-01T03:12:50.075Z,1.20
2019-06-01T03:15:22.390Z,1.10
2019-06-01T03:17:59.414Z,1.03
2019-06-01T03:20:31.794Z,0.80
2019-06-01T03:23:02.170Z,1.23
2019-06-01T03:25:33.221Z,0.80
2019-06-01T03:28:08.518Z,0.90
2019-06-01T03:30:45.651Z,0.70
2019-06-01T03:33:14.564Z,0.90
2019-06-01T03:35:45.976Z,0.87
2019-06-01T03:38:16.913Z,1.00
2019-06-01T03:40:50.089Z,1.20
2019-06-01T03:43:21.589Z,0.90
2019-06-01T03:45:51.795Z,1.03
2019-06-01T03:48:22.743Z,1.00
2019-06-01T03:50:53.641Z,1.00
2019-06-01T03:53:23.485Z,0.90
2019-06-01T03:55:54.457Z,1.00
2019-06-01T03:58:26.341Z,1.00
2019-06-01T04:01:01.042Z,1.03
2019-06-01T04:03:31.038Z,1.13
2019-06-01T04:06:01.174Z,1.13
2019-06-01T04:08:34.216Z,2.20
2019-06-01T04:11:05.581Z,0.90
2019-06-01T04:13:37.591Z,1.10
2019-06-01T04:16:07.959Z,1.00
2019-06-01T04:18:40.322Z,0.70
2019-06-01T04:21:10.721Z,1.10
2019-06-01T04:23:41.313Z,0.80
2019-06-01T04:26:12.275Z,0.90
2019-06-01T04:28:43.065Z,0.90
2019-06-01T04:31:13.557Z,1.40
2019-06-01T04:33:45.693Z,1.30
2019-06-01T04:36:16.477Z,1.20
2019-06-01T04:38:47.869Z,1.10
2019-06-01T04:41:18.287Z,1.00
2019-06-01T04:43:48.793Z,1.27
2019-06-01T04:46:19.613Z,1.43
2019-06-01T04:48:50.041Z,1.23
2019-06-01T04:51:20.439Z,1.20
2019-06-01T04:53:50.809Z,1.20
2019-06-01T04:56:21.522Z,1.00
2019-06-01T04:58:51.994Z,1.20
2019-06-01T05:01:22.911Z,1.60
2019-06-01T05:03:53.825Z,1.10
2019-06-01T05:06:24.566Z,1.43
2019-06-01T05:08:54.998Z,1.30
2019-06-01T05:11:27.957Z,1.03
2019-06-01T05:14:00.766Z,1.00
2019-06-01T05:16:33.682Z,1.27
2019-06-01T05:19:06.035Z,1.50
2019-06-01T05:21:36.452Z,1.37
2019-06-01T05:24:06.688Z,1.17
2019-06-01T05:26:37.133Z,1.20
2019-06-01T05:29:07.469Z,1.20
2019-06-01T05:31:38.011Z,1.20
2019-06-01T05:34:09.702Z,1.20
2019-06-01T05:36:40.166Z,1.20
2019-06-01T05:39:10.545Z,1.30
2019-06-01T05:41:40.509Z,1.10
2019-06-01T05:44:14.946Z,1.10
2019-06-01T05:46:45.973Z,1.00
2019-06-01T05:49:18.605Z,1.00
2019-06-01T05:51:51.181Z,0.90
2019-06-01T05:54:22.994Z,1.40
2019-06-01T05:56:53.453Z,1.20
2019-06-01T05:59:23.268Z,1.10
2019-06-01T06:01:54.166Z,1.20
2019-06-01T06:04:26.165Z,1.30
2019-06-01T06:06:55.969Z,1.43
2019-06-01T06:09:28.089Z,1.00
2019-06-01T06:11:58.572Z,1.00
2019-06-01T06:14:28.509Z,0.90
2019-06-01T06:17:01.974Z,1.43
2019-06-01T06:19:35.337Z,1.73
2019-06-01T06:22:04.976Z,1.00
2019-06-01T06:24:35.356Z,1.17
2019-06-01T06:27:07.527Z,1.27
2019-06-01T06:29:37.717Z,1.33
2019-06-01T06:32:09.314Z,1.50
2019-06-01T06:34:40.417Z,1.50
2019-06-01T06:37:11.381Z,1.20
2019-06-01T06:39:41.886Z,1.20
2019-06-01T06:42:14.047Z,1.10
2019-06-01T06:44:43.921Z,1.20
2019-06-01T06:47:14.736Z,1.20
2019-06-01T06:49:45.269Z,1.50
2019-06-01T06:52:15.513Z,1.20
2019-06-01T06:54:46.019Z,1.10
2019-06-01T06:57:16.442Z,1.07
2019-06-01T06:59:48.132Z,1.17
2019-06-01T07:02:18.792Z,1.20
2019-06-01T07:04:48.710Z,1.13
2019-06-01T07:07:19.563Z,1.13
2019-06-01T07:09:50.656Z,1.10
2019-06-01T07:12:23.293Z,1.10
2019-06-01T07:14:56.306Z,1.30
2019-06-01T07:17:27.715Z,1.10
2019-06-01T07:20:02.304Z,1.20
2019-06-01T07:22:33.059Z,1.03
2019-06-01T07:25:03.397Z,1.00
2019-06-01T07:27:33.414Z,1.10
2019-06-01T07:30:04.089Z,1.13
2019-06-01T07:32:34.422Z,1.00
2019-06-01T07:35:05.074Z,0.97
2019-06-01T07:37:36.437Z,0.90
2019-06-01T07:40:07.377Z,0.87
2019-06-01T07:42:37.202Z,1.00
2019-06-01T07:45:08.408Z,0.93
2019-06-01T07:47:39.826Z,0.90
2019-06-01T07:50:09.961Z,0.90
2019-06-01T07:52:40.825Z,1.07
2019-06-01T07:55:11.197Z,1.10
2019-06-01T07:57:44.363Z,1.10
2019-06-01T08:00:15.617Z,0.90
2019-06-01T08:02:46.910Z,1.00
2019-06-01T08:05:17.439Z,0.80
2019-06-01T08:07:48.485Z,0.77
2019-06-01T08:10:21.350Z,0.67
2019-06-01T08:12:54.073Z,0.80
2019-06-01T08:15:23.938Z,0.80
2019-06-01T08:17:55.477Z,0.87
2019-06-01T08:20:28.632Z,0.90
2019-06-01T08:22:58.925Z,0.83
2019-06-01T08:25:30.612Z,0.60
2019-06-01T08:28:07.014Z,0.93
2019-06-01T08:30:36.870Z,0.80
2019-06-01T08:33:07.321Z,0.70
2019-06-01T08:35:38.873Z,1.00
2019-06-01T08:38:09.874Z,0.77
2019-06-01T08:40:40.818Z,0.77
2019-06-01T08:43:12.602Z,0.60
2019-06-01T08:45:43.134Z,0.70
2019-06-01T08:48:15.034Z,0.93
2019-06-01T08:50:46.281Z,0.60
2019-06-01T08:53:17.658Z,0.53
2019-06-01T08:55:51.134Z,0.70
2019-06-01T08:58:24.175Z,0.60
2019-06-01T09:00:54.617Z,0.70
2019-06-01T09:03:25.741Z,0.73
2019-06-01T09:05:56.913Z,0.90
2019-06-01T09:08:28.816Z,0.77
2019-06-01T09:11:02.810Z,0.70
2019-06-01T09:13:33.731Z,0.60
2019-06-01T09:16:04.674Z,0.70
2019-06-01T09:18:35.856Z,0.77
2019-06-01T09:21:06.777Z,0.90
2019-06-01T09:23:37.984Z,0.80
2019-06-01T09:26:08.032Z,0.73
2019-06-01T09:28:38.612Z,0.80
2019-06-01T09:31:09.681Z,0.70
2019-06-01T09:33:40.021Z,1.07
2019-06-01T09:36:10.013Z,1.00
2019-06-01T09:38:42.925Z,0.97
2019-06-01T09:41:13.449Z,0.90
2019-06-01T09:43:46.345Z,0.90
2019-06-01T09:46:17.721Z,1.20
2019-06-01T09:48:47.428Z,1.03
2019-06-01T09:51:17.798Z,1.00
2019-06-01T09:53:48.307Z,0.90
2019-06-01T09:56:18.716Z,1.10
2019-06-01T09:58:49.653Z,1.10
2019-06-01T10:01:19.581Z,1.43
2019-06-01T10:03:50.723Z,0.83
2019-06-01T10:06:20.641Z,1.10
2019-06-01T10:08:52.965Z,0.97
2019-06-01T10:11:48.565Z,1.10
2019-06-01T10:14:19.454Z,0.90
2019-06-01T10:16:50.603Z,1.10
2019-06-01T10:19:22.068Z,1.00
2019-06-01T10:21:52.490Z,1.33
2019-06-01T10:24:23.924Z,1.03
2019-06-01T10:26:53.839Z,1.50
2019-06-01T10:29:24.931Z,1.20
2019-06-01T10:31:54.856Z,1.10
2019-06-01T10:34:26.092Z,0.83
2019-06-01T10:36:58.045Z,1.10
2019-06-01T10:39:31.293Z,1.37
2019-06-01T10:42:01.669Z,1.13
2019-06-01T10:44:37.928Z,1.40
2019-06-01T10:47:05.237Z,2.10
2019-06-01T10:49:38.030Z,1.00
2019-06-01T10:52:08.928Z,1.30
2019-06-01T10:54:40.288Z,1.00
2019-06-01T10:57:10.782Z,1.00
2019-06-01T10:59:40.622Z,1.00
2019-06-01T11:02:11.098Z,0.97
2019-06-01T11:04:41.385Z,1.20
2019-06-01T11:07:11.285Z,1.07
2019-06-01T11:09:43.132Z,1.10
2019-06-01T11:12:15.961Z,1.40
2019-06-01T11:14:47.989Z,1.03
2019-06-01T11:17:19.991Z,1.20
2019-06-01T11:19:50.466Z,1.20
2019-06-01T11:22:20.614Z,1.43
2019-06-01T11:24:50.459Z,1.27
2019-06-01T11:27:22.842Z,1.40
2019-06-01T11:29:52.831Z,2.17
2019-06-01T11:32:24.267Z,1.40
2019-06-01T11:34:54.723Z,1.20
2019-06-01T11:37:25.281Z,1.30
2019-06-01T11:39:55.666Z,1.30
2019-06-01T11:42:26.577Z,1.23
2019-06-01T11:44:57.037Z,1.47
2019-06-01T11:47:27.761Z,1.40
2019-06-01T11:49:58.717Z,1.57
2019-06-01T11:52:29.059Z,1.60
2019-06-01T11:55:00.138Z,1.33
2019-06-01T11:57:30.654Z,1.50
2019-06-01T12:00:03.562Z,1.30
2019-06-01T12:02:33.905Z,1.37
2019-06-01T12:05:04.957Z,1.63
2019-06-01T12:07:35.696Z,1.30
2019-06-01T12:10:06.261Z,1.40
2019-06-01T12:12:36.289Z,1.60
2019-06-01T12:15:09.585Z,1.20
2019-06-01T12:17:40.552Z,1.70
2019-06-01T12:20:12.199Z,1.43
2019-06-01T12:22:45.138Z,1.60
2019-06-01T12:25:15.977Z,1.50
2019-06-01T12:27:48.953Z,1.40
2019-06-01T12:30:20.455Z,1.37
2019-06-01T12:32:51.093Z,1.40
2019-06-01T12:35:20.997Z,1.30
2019-06-01T12:38:05.601Z,2.20
2019-06-01T12:40:23.917Z,1.50
2019-06-01T12:42:54.773Z,1.50
2019-06-01T12:45:26.757Z,1.67
2019-06-01T12:47:58.704Z,1.22
2019-06-01T12:50:29.977Z,1.87
2019-06-01T12:53:02.007Z,1.47
2019-06-01T12:55:32.186Z,1.30
2019-06-01T12:58:02.631Z,1.80
2019-06-01T13:00:34.809Z,1.67
2019-06-01T13:03:08.107Z,1.50
2019-06-01T13:05:38.279Z,1.43
2019-06-01T13:08:08.753Z,1.40
2019-06-01T13:10:38.873Z,1.47
2019-06-01T13:13:09.278Z,1.60
2019-06-01T13:15:41.124Z,1.75
2019-06-01T13:18:13.781Z,2.00
2019-06-01T13:20:45.741Z,1.87
2019-06-01T13:23:16.247Z,2.20
2019-06-01T13:25:47.656Z,1.73
2019-06-01T13:28:19.710Z,1.80
2019-06-01T13:30:51.112Z,1.70
2019-06-01T13:33:21.786Z,2.10
2019-06-01T13:35:52.791Z,2.27
2019-06-01T13:38:23.801Z,2.10
2019-06-01T13:40:54.781Z,2.07
2019-06-01T13:43:25.517Z,1.93
2019-06-01T13:45:56.597Z,2.17
2019-06-01T13:48:26.506Z,2.20
2019-06-01T13:50:56.453Z,2.10
2019-06-01T13:53:26.938Z,2.20
2019-06-01T13:55:57.337Z,2.20
2019-06-01T13:58:29.113Z,2.10
2019-06-01T14:00:58.969Z,1.67
2019-06-01T14:03:30.086Z,1.80
2019-06-01T14:06:01.160Z,2.10
2019-06-01T14:08:33.174Z,1.90
2019-06-01T14:11:05.178Z,1.87
2019-06-01T14:13:36.183Z,2.00
2019-06-01T14:16:06.258Z,2.23
2019-06-01T14:18:37.749Z,2.30
2019-06-01T14:21:08.218Z,1.90
2019-06-01T14:23:39.659Z,2.17
2019-06-01T14:26:10.481Z,1.80
2019-06-01T14:28:41.421Z,2.60
2019-06-01T14:31:11.922Z,2.27
2019-06-01T14:33:42.432Z,1.80
2019-06-01T14:36:13.126Z,2.30
2019-06-01T14:38:47.751Z,1.97
2019-06-01T14:41:17.857Z,2.13
2019-06-01T14:43:47.658Z,2.20
2019-06-01T14:46:19.226Z,2.73
2019-06-01T14:48:51.469Z,2.20
2019-06-01T14:51:21.949Z,2.60
2019-06-01T14:53:53.707Z,2.23
2019-06-01T14:56:24.730Z,2.37
2019-06-01T14:58:55.997Z,2.17
2019-06-01T15:01:32.602Z,2.20
2019-06-01T15:04:01.077Z,2.57
2019-06-01T15:06:32.987Z,2.23
2019-06-01T15:09:17.599Z,2.43
2019-06-01T15:11:35.587Z,2.33
2019-06-01T15:14:06.582Z,2.33
2019-06-01T15:16:36.750Z,2.63
2019-06-01T15:19:06.657Z,2.40
2019-06-01T15:21:38.713Z,2.40
2019-06-01T15:24:09.581Z,2.20
2019-06-01T15:26:40.789Z,2.17
2019-06-01T15:29:12.725Z,2.87
2019-06-01T15:31:43.930Z,2.50
2019-06-01T15:34:14.561Z,2.40
2019-06-01T15:36:46.873Z,2.37
2019-06-01T15:39:24.771Z,2.57
2019-06-01T15:41:51.067Z,2.37
2019-06-01T15:44:21.726Z,2.37
2019-06-01T15:46:53.666Z,2.60
2019-06-01T15:49:24.156Z,2.60
2019-06-01T15:51:58.200Z,3.02
2019-06-01T15:54:28.821Z,2.62
2019-06-01T15:56:59.179Z,2.33
2019-06-01T15:59:31.261Z,2.62
2019-06-01T16:02:01.332Z,2.75
2019-06-01T16:04:31.846Z,2.72
2019-06-01T16:07:03.383Z,2.60
2019-06-01T16:09:42.700Z,2.80
2019-06-01T16:12:07.225Z,2.65
2019-06-01T16:14:37.205Z,2.67
2019-06-01T16:17:08.702Z,2.80
2019-06-01T16:19:38.614Z,3.30
2019-06-01T16:22:08.985Z,3.02
2019-06-01T16:24:40.494Z,3.13
2019-06-01T16:27:10.481Z,2.95
2019-06-01T16:29:42.485Z,3.45
2019-06-01T16:32:15.417Z,2.70
2019-06-01T16:34:45.909Z,3.20
2019-06-01T16:37:16.825Z,3.27
2019-06-01T16:39:58.822Z,2.90
2019-06-01T16:42:19.896Z,3.20
2019-06-01T16:44:50.386Z,3.72
2019-06-01T16:47:20.366Z,3.83
2019-06-01T16:49:52.101Z,3.33
2019-06-01T16:52:23.325Z,3.72
2019-06-01T16:54:54.029Z,3.57
2019-06-01T16:57:24.418Z,3.58
2019-06-01T16:59:56.328Z,3.60
2019-06-01T17:02:26.338Z,3.72
2019-06-01T17:04:58.521Z,3.07
2019-06-01T17:07:29.559Z,3.53
2019-06-01T17:10:15.227Z,4.03
2019-06-01T17:12:32.621Z,4.10
2019-06-01T17:15:03.252Z,3.40
2019-06-01T17:17:34.277Z,4.17
2019-06-01T17:20:05.636Z,3.80
2019-06-01T17:22:36.137Z,3.85
2019-06-01T17:25:08.046Z,3.90
2019-06-01T17:27:38.563Z,3.87
2019-06-01T17:30:11.989Z,3.77
2019-06-01T17:32:41.705Z,3.67
2019-06-01T17:35:14.369Z,3.72
2019-06-01T17:37:44.777Z,4.08
2019-06-01T17:40:15.733Z,3.60
2019-06-01T17:42:46.813Z,3.63
2019-06-01T17:45:17.594Z,4.00
2019-06-01T17:47:49.138Z,3.50
2019-06-01T17:50:22.981Z,3.40
2019-06-01T17:52:54.249Z,3.70
2019-06-01T17:55:31.142Z,3.63
2019-06-01T17:58:03.394Z,3.10
2019-06-01T18:00:34.039Z,3.37
2019-06-01T18:03:05.777Z,3.37
2019-06-01T18:05:36.274Z,3.33
2019-06-01T18:08:08.223Z,3.07
2019-06-01T18:10:53.157Z,3.72
2019-06-01T18:13:12.894Z,3.77
2019-06-01T18:15:43.473Z,3.57
2019-06-01T18:18:13.364Z,3.00
2019-06-01T18:20:44.229Z,3.70
2019-06-01T18:23:14.814Z,2.70
2019-06-01T18:25:47.414Z,2.60
2019-06-01T18:28:20.014Z,2.60
2019-06-01T18:30:53.285Z,2.20
2019-06-01T18:33:26.097Z,1.80
2019-06-01T18:36:00.501Z,2.10
2019-06-01T18:38:31.438Z,1.97
2019-06-01T18:41:12.801Z,2.40
2019-06-01T18:43:34.649Z,2.17
2019-06-01T18:46:05.793Z,1.90
2019-06-01T18:48:36.085Z,2.10
2019-06-01T18:51:06.147Z,1.93
2019-06-01T18:53:37.022Z,1.83
2019-06-01T18:56:10.089Z,2.30
2019-06-01T18:58:41.466Z,2.97
2019-06-01T19:01:32.085Z,3.87
2019-06-01T19:04:02.458Z,2.40
2019-06-01T19:06:33.389Z,4.20
2019-06-01T19:09:03.255Z,2.37
2019-06-01T19:11:36.400Z,2.00
2019-06-01T19:14:07.804Z,1.83
2019-06-01T19:16:37.817Z,1.60
2019-06-01T19:19:08.308Z,2.10
2019-06-01T19:21:38.812Z,1.93
2019-06-01T19:24:12.638Z,2.00
2019-06-01T19:26:44.658Z,2.00
2019-06-01T19:29:15.153Z,1.80
2019-06-01T19:31:49.319Z,1.70
2019-06-01T19:34:20.305Z,1.83
2019-06-01T19:36:55.627Z,1.90
2019-06-01T19:39:27.221Z,2.20
2019-06-01T19:41:56.969Z,1.90
2019-06-01T19:44:27.449Z,2.10
2019-06-01T19:46:57.765Z,2.10
2019-06-01T19:49:28.209Z,1.97
2019-06-01T19:51:58.554Z,2.13
2019-06-01T19:54:30.325Z,1.70
2019-06-01T19:57:01.150Z,2.00
2019-06-01T19:59:31.453Z,2.00
2019-06-01T20:02:03.251Z,2.60
2019-06-01T20:04:37.691Z,2.20
2019-06-01T20:07:11.366Z,2.30
2019-06-01T20:09:41.426Z,2.00
2019-06-01T20:12:14.880Z,2.33
2019-06-01T20:14:43.937Z,2.20
2019-06-01T20:17:35.953Z,2.20
2019-06-01T20:20:07.647Z,2.50
2019-06-01T20:22:39.846Z,2.00
2019-06-01T20:25:13.247Z,2.43
2019-06-01T20:27:43.161Z,1.73
2019-06-01T20:30:13.836Z,2.10
2019-06-01T20:32:44.794Z,2.13
2019-06-01T20:35:16.057Z,1.93
2019-06-01T20:37:48.025Z,2.27
2019-06-01T20:40:20.367Z,2.30
2019-06-01T20:42:52.034Z,2.10
2019-06-01T20:45:23.661Z,2.40
2019-06-01T20:47:54.206Z,2.30
2019-06-01T20:50:24.905Z,2.43
2019-06-01T20:52:57.697Z,2.10
2019-06-01T20:55:28.693Z,2.47
2019-06-01T20:58:00.575Z,2.33
2019-06-01T21:00:32.072Z,2.33
2019-06-01T21:03:03.418Z,2.57
2019-06-01T21:05:33.963Z,2.30
2019-06-01T21:08:04.425Z,3.27
2019-06-01T21:10:36.899Z,2.20
2019-06-01T21:13:08.107Z,2.63
2019-06-01T21:15:38.661Z,2.37
2019-06-01T21:18:09.048Z,2.70
2019-06-01T21:20:38.922Z,2.50
2019-06-01T21:23:10.647Z,2.50
2019-06-01T21:25:41.949Z,3.00
2019-06-01T21:28:15.862Z,2.90
2019-06-01T21:30:47.615Z,3.10
2019-06-01T21:33:19.758Z,2.40
2019-06-01T21:35:50.997Z,2.90
2019-06-01T21:38:21.369Z,2.60
2019-06-01T21:40:53.055Z,2.47
2019-06-01T21:43:33.121Z,2.50
2019-06-01T21:45:55.996Z,2.90
2019-06-01T21:48:26.372Z,2.90
2019-06-01T21:50:59.592Z,2.37
2019-06-01T21:53:30.060Z,2.87
2019-06-01T21:55:59.961Z,2.63
2019-06-01T21:58:30.804Z,2.30
2019-06-01T22:01:01.335Z,2.63
2019-06-01T22:03:31.737Z,3.17
2019-06-01T22:06:03.204Z,2.87
2019-06-01T22:08:34.810Z,3.13
2019-06-01T22:11:06.210Z,2.93
2019-06-01T22:13:36.572Z,3.23
2019-06-01T22:16:07.581Z,3.43
2019-06-01T22:18:40.865Z,3.83
2019-06-01T22:21:13.449Z,2.50
2019-06-01T22:23:44.287Z,2.93
2019-06-01T22:26:15.253Z,3.03
2019-06-01T22:28:46.581Z,3.00
2019-06-01T22:31:18.638Z,3.10
2019-06-01T22:33:49.962Z,2.77
2019-06-01T22:36:41.277Z,2.67
2019-06-01T22:39:12.188Z,3.03
2019-06-01T22:41:42.528Z,2.70
2019-06-01T22:44:13.561Z,2.73
2019-06-01T22:46:53.965Z,2.93
2019-06-01T22:49:24.771Z,3.27
2019-06-01T22:51:55.326Z,2.97
2019-06-01T22:54:25.280Z,2.63
2019-06-01T22:56:56.441Z,2.93
2019-06-01T22:59:26.993Z,3.10
2019-06-01T23:01:57.372Z,3.20
2019-06-01T23:04:29.293Z,2.93
2019-06-01T23:06:59.807Z,2.60
2019-06-01T23:09:31.667Z,2.53
2019-06-01T23:12:03.545Z,2.87
2019-06-01T23:14:34.456Z,3.50
2019-06-01T23:17:05.460Z,3.27
2019-06-01T23:19:36.178Z,2.70
2019-06-01T23:22:07.198Z,2.67
2019-06-01T23:24:37.670Z,2.70
2019-06-01T23:27:08.149Z,3.03
2019-06-01T23:29:37.965Z,2.83
2019-06-01T23:32:10.462Z,3.10
2019-06-01T23:34:41.439Z,2.80
2019-06-01T23:37:14.317Z,3.10
2019-06-01T23:39:44.384Z,3.10
2019-06-01T23:42:14.825Z,3.23
2019-06-01T23:44:47.734Z,3.53
2019-06-01T23:47:19.149Z,2.80
2019-06-01T23:49:49.624Z,3.03
2019-06-01T23:52:21.154Z,3.27
2019-06-01T23:54:52.123Z,3.20
2019-06-01T23:57:23.664Z,3.30
2019-06-01T23:59:55.263Z,3.27
